Time;durP1;ratioP1;P1;durP2;ratioP2;P2;SDS_P1;SDS_P2;PMS_P1;PMS_P2;Temp;Humidity;BMP_temperature;BMP_pressure;BME280_temperature;BME280_humidity;BME280_pressure;Samples;Min_cycle;Max_cycle;Signal;HPM_P1;HPM_P2
2021/11/11 00:00:52;;;;;;;14.40;7.77;;;6.40;99.90;;;;;;4947811;29;20460;-57
2021/11/11 00:03:20;;;;;;;16.57;9.73;;;6.40;99.90;;;;;;4961759;23;20472;-50
2021/11/11 00:05:48;;;;;;;15.80;9.80;;;6.30;99.90;;;;;;4957141;29;20468;-48
2021/11/11 00:08:22;;;;;;;17.50;10.30;;;6.20;99.90;;;;;;4981855;23;20496;-56
2021/11/11 00:10:52;;;;;;;16.90;8.87;;;6.20;99.90;;;;;;4960225;29;20512;-53
2021/11/11 00:13:27;;;;;;;15.50;8.97;;;6.20;99.90;;;;;;4975354;23;20519;-49
2021/11/11 00:15:57;;;;;;;17.30;9.27;;;6.20;99.90;;;;;;4979173;29;20467;-57
2021/11/11 00:18:26;;;;;;;11.17;7.10;;;6.20;99.90;;;;;;4986360;23;20522;-50
2021/11/11 00:20:54;;;;;;;13.30;8.13;;;6.10;99.90;;;;;;4979829;29;20448;-57
2021/11/11 00:23:20;;;;;;;14.10;9.03;;;6.10;99.90;;;;;;4980081;29;20504;-58
2021/11/11 00:25:47;;;;;;;10.57;7.97;;;6.00;99.90;;;;;;4979626;29;20448;-59
2021/11/11 00:28:14;;;;;;;13.43;7.50;;;6.10;99.90;;;;;;4979294;29;20479;-56
2021/11/11 00:30:42;;;;;;;15.73;8.20;;;6.00;99.90;;;;;;4979990;29;20475;-55
2021/11/11 00:33:28;;;;;;;13.73;8.10;;;6.00;99.90;;;;;;4988180;23;20565;-57
2021/11/11 00:35:56;;;;;;;17.27;9.63;;;6.00;99.90;;;;;;4998555;28;20462;-57
2021/11/11 00:38:23;;;;;;;13.87;9.37;;;6.00;99.90;;;;;;5003775;23;20458;-56
2021/11/11 00:40:50;;;;;;;19.03;9.37;;;6.00;99.90;;;;;;4979614;29;20423;-58
2021/11/11 00:45:42;;;;;;;19.33;10.00;;;6.10;99.90;;;;;;4984274;23;20479;-55
2021/11/11 00:48:09;;;;;;;13.90;8.47;;;6.10;99.90;;;;;;4979184;29;20228;-56
2021/11/11 00:50:37;;;;;;;13.40;8.70;;;6.00;99.90;;;;;;4979113;29;20435;-54
2021/11/11 00:53:06;;;;;;;14.37;9.20;;;6.10;99.90;;;;;;4979460;29;20977;-57
2021/11/11 00:55:34;;;;;;;14.27;9.37;;;6.00;99.90;;;;;;4979266;29;20411;-53
2021/11/11 00:58:01;;;;;;;20.63;9.07;;;6.00;99.90;;;;;;4978731;29;20443;-54
2021/11/11 01:00:39;;;;;;;12.87;8.27;;;6.00;99.90;;;;;;4997878;23;20606;-54
2021/11/11 01:03:06;;;;;;;14.57;7.67;;;5.90;99.90;;;;;;4991794;28;20423;-55
2021/11/11 01:05:33;;;;;;;23.47;9.47;;;5.80;99.90;;;;;;4997882;23;20490;-56
2021/11/11 01:08:00;;;;;;;16.77;9.60;;;5.80;99.90;;;;;;4992067;28;20501;-51
2021/11/11 01:10:31;;;;;;;14.27;7.70;;;5.80;99.90;;;;;;4991084;23;20527;-57
2021/11/11 01:13:03;;;;;;;19.50;10.03;;;5.70;99.90;;;;;;4972497;29;20987;-58
2021/11/11 01:15:32;;;;;;;12.10;7.80;;;5.70;99.90;;;;;;4973047;29;20953;-58
2021/11/11 01:17:59;;;;;;;14.80;10.10;;;5.70;99.90;;;;;;4971208;28;20452;-58
2021/11/11 01:20:31;;;;;;;14.87;9.40;;;5.70;99.90;;;;;;4997460;23;20605;-58
2021/11/11 01:23:01;;;;;;;19.80;9.60;;;5.60;99.90;;;;;;4973761;28;20435;-55
2021/11/11 01:25:40;;;;;;;20.27;10.63;;;5.60;99.90;;;;;;4972144;29;20463;-57
2021/11/11 01:28:08;;;;;;;14.00;9.37;;;5.50;99.90;;;;;;4972383;29;20455;-55
2021/11/11 01:30:36;;;;;;;15.03;9.77;;;5.50;99.90;;;;;;4978001;23;20441;-53
2021/11/11 01:33:04;;;;;;;16.30;9.30;;;5.50;99.90;;;;;;4970033;29;20482;-53
2021/11/11 01:35:31;;;;;;;14.27;9.73;;;5.50;99.90;;;;;;4979256;23;20543;-57
2021/11/11 01:38:04;;;;;;;14.87;8.83;;;5.50;99.90;;;;;;4971057;29;20544;-57
2021/11/11 01:43:13;;;;;;;17.17;8.17;;;5.40;99.90;;;;;;4978482;23;20483;-58
2021/11/11 01:48:26;;;;;;;10.67;7.73;;;5.30;99.90;;;;;;4977712;23;20530;-54
2021/11/11 01:53:34;;;;;;;14.80;9.90;;;5.30;99.90;;;;;;4977254;23;21028;-54
2021/11/11 01:56:01;;;;;;;13.20;8.20;;;5.30;99.90;;;;;;4972167;29;20522;-58
2021/11/11 01:58:29;;;;;;;14.97;9.70;;;5.30;99.90;;;;;;4979411;23;20868;-57
2021/11/11 02:00:59;;;;;;;16.17;9.43;;;5.30;99.90;;;;;;4972163;29;20484;-57
2021/11/11 02:03:26;;;;;;;12.53;9.43;;;5.30;99.90;;;;;;4979031;23;20563;-58
2021/11/11 02:05:53;;;;;;;16.53;8.43;;;5.30;99.90;;;;;;4972310;29;20448;-55
2021/11/11 02:08:20;;;;;;;13.97;9.47;;;5.30;99.90;;;;;;4993449;23;20497;-58
2021/11/11 02:10:47;;;;;;;17.80;10.67;;;5.30;99.90;;;;;;4991794;28;20920;-59
2021/11/11 02:13:14;;;;;;;17.50;10.83;;;5.20;99.90;;;;;;5012615;23;21591;-56
2021/11/11 02:15:42;;;;;;;16.77;8.90;;;5.20;99.90;;;;;;4991524;28;20458;-56
2021/11/11 02:18:10;;;;;;;16.33;10.80;;;5.20;99.90;;;;;;5015560;23;20511;-57
2021/11/11 02:20:40;;;;;;;12.10;8.07;;;5.20;99.90;;;;;;5030003;28;20441;-55
2021/11/11 02:23:10;;;;;;;16.07;9.50;;;5.20;99.90;;;;;;5013418;23;20491;-57
2021/11/11 02:25:37;;;;;;;19.20;10.00;;;5.20;99.90;;;;;;4971665;29;20482;-55
2021/11/11 02:28:06;;;;;;;16.23;9.50;;;5.20;99.90;;;;;;4978576;23;20542;-58
2021/11/11 02:30:34;;;;;;;14.30;8.13;;;5.10;99.90;;;;;;4971843;28;20526;-56
2021/11/11 02:33:01;;;;;;;17.77;9.27;;;5.10;99.90;;;;;;4971893;29;20950;-55
2021/11/11 02:35:28;;;;;;;16.27;8.63;;;5.00;99.90;;;;;;4994238;23;20491;-58
2021/11/11 02:38:00;;;;;;;12.53;7.77;;;5.00;99.90;;;;;;4971889;29;20424;-57
2021/11/11 02:40:28;;;;;;;17.10;10.20;;;5.00;99.90;;;;;;4994069;23;20487;-56
2021/11/11 02:42:56;;;;;;;11.60;7.90;;;4.90;99.90;;;;;;4991486;28;20425;-56
2021/11/11 02:45:24;;;;;;;10.90;8.37;;;5.00;99.90;;;;;;4998178;23;20560;-54
2021/11/11 02:47:52;;;;;;;17.30;10.30;;;5.00;99.90;;;;;;4990686;28;20470;-53
2021/11/11 02:50:20;;;;;;;19.20;8.40;;;5.00;99.90;;;;;;4998242;23;20486;-58
2021/11/11 02:52:51;;;;;;;16.47;10.33;;;5.00;99.90;;;;;;4990925;28;20490;-55
2021/11/11 02:55:20;;;;;;;14.67;9.37;;;5.00;99.90;;;;;;5029538;23;20489;-58
2021/11/11 02:57:48;;;;;;;19.07;9.57;;;5.00;99.90;;;;;;5029659;28;20476;-56
2021/11/11 03:00:17;;;;;;;17.20;8.73;;;5.00;99.90;;;;;;5011893;23;20491;-56
2021/11/11 03:02:49;;;;;;;13.80;7.83;;;5.00;99.90;;;;;;4965509;29;20448;-55
2021/11/11 03:05:20;;;;;;;15.17;7.87;;;5.00;99.90;;;;;;4971159;23;20515;-59
2021/11/11 03:07:47;;;;;;;13.60;9.10;;;5.10;99.90;;;;;;4963539;29;20451;-55
2021/11/11 03:10:17;;;;;;;16.50;8.83;;;5.10;99.90;;;;;;4985806;23;20495;-57
2021/11/11 03:12:48;;;;;;;13.80;9.13;;;5.10;99.90;;;;;;4962888;29;20968;-59
2021/11/11 03:15:16;;;;;;;16.93;9.40;;;5.10;99.90;;;;;;4971154;23;20937;-55
2021/11/11 03:17:43;;;;;;;9.57;6.67;;;4.90;99.90;;;;;;4963601;29;20432;-56
2021/11/11 03:20:12;;;;;;;13.10;7.50;;;4.80;99.90;;;;;;4964146;29;20519;-58
2021/11/11 03:22:45;;;;;;;10.70;6.93;;;4.70;99.90;;;;;;4978026;23;20483;-58
2021/11/11 03:25:15;;;;;;;16.60;9.17;;;4.70;99.90;;;;;;4973314;29;20813;-58
2021/11/11 03:27:41;;;;;;;15.03;8.03;;;4.60;99.90;;;;;;4993950;23;20487;-54
2021/11/11 03:30:14;;;;;;;13.33;8.60;;;4.50;99.90;;;;;;4993229;28;20578;-52
2021/11/11 03:32:41;;;;;;;13.13;9.40;;;4.50;99.90;;;;;;4992963;28;20487;-54
2021/11/11 03:35:10;;;;;;;17.67;9.13;;;4.50;99.90;;;;;;4993070;28;20482;-58
2021/11/11 03:37:38;;;;;;;16.70;7.70;;;4.40;99.90;;;;;;4999217;23;20490;-57
2021/11/11 03:40:07;;;;;;;12.30;7.40;;;4.40;99.90;;;;;;4993317;28;20449;-59
2021/11/11 03:42:34;;;;;;;16.93;9.20;;;4.40;99.90;;;;;;4992019;28;20477;-56
2021/11/11 03:45:01;;;;;;;18.67;7.37;;;4.40;99.90;;;;;;4993116;28;20455;-54
2021/11/11 03:47:29;;;;;;;18.63;8.67;;;4.30;99.90;;;;;;4993048;28;20455;-59
2021/11/11 03:49:56;;;;;;;10.80;6.60;;;4.30;99.90;;;;;;4993065;28;20956;-56
2021/11/11 03:52:23;;;;;;;9.93;6.43;;;4.30;99.90;;;;;;4992965;28;20470;-56
2021/11/11 03:54:49;;;;;;;12.93;7.57;;;4.20;99.90;;;;;;4992830;28;20502;-51
2021/11/11 03:57:16;;;;;;;19.17;8.63;;;4.30;99.90;;;;;;4992286;28;20447;-54
2021/11/11 03:59:43;;;;;;;15.30;8.00;;;4.30;99.90;;;;;;4992427;28;20467;-54
2021/11/11 04:02:13;;;;;;;10.40;6.20;;;4.30;99.90;;;;;;4992424;28;20928;-57
2021/11/11 04:04:42;;;;;;;10.37;7.80;;;4.30;99.90;;;;;;5021620;23;20488;-55
2021/11/11 04:07:09;;;;;;;11.80;7.00;;;4.20;99.90;;;;;;5032024;28;20445;-57
2021/11/11 04:09:44;;;;;;;11.53;6.70;;;4.20;99.90;;;;;;5008967;23;20523;-57
2021/11/11 04:12:12;;;;;;;14.57;8.53;;;4.20;99.90;;;;;;4972933;29;20432;-57
2021/11/11 04:14:38;;;;;;;15.10;8.53;;;4.20;99.90;;;;;;4973362;29;20447;-55
2021/11/11 04:17:05;;;;;;;14.73;9.47;;;4.30;99.90;;;;;;4972159;29;20491;-56
2021/11/11 04:19:32;;;;;;;14.13;8.47;;;4.30;99.90;;;;;;4979386;23;20467;-58
2021/11/11 04:22:00;;;;;;;14.10;8.13;;;4.40;99.90;;;;;;4973415;29;20467;-61
2021/11/11 04:24:26;;;;;;;11.80;7.33;;;4.40;99.90;;;;;;4980499;23;20499;-53
2021/11/11 04:26:56;;;;;;;14.80;8.67;;;4.30;99.90;;;;;;4972885;29;20495;-56
2021/11/11 04:29:25;;;;;;;15.00;9.20;;;4.30;99.90;;;;;;4979617;23;20527;-59
2021/11/11 04:31:55;;;;;;;13.30;7.67;;;4.30;99.90;;;;;;4972727;29;20463;-56
2021/11/11 04:34:23;;;;;;;14.60;7.23;;;4.30;99.90;;;;;;4996994;23;20479;-52
2021/11/11 04:37:12;;;;;;;14.00;9.10;;;4.30;99.90;;;;;;4972284;29;20460;-56
2021/11/11 04:48:04;;;;;;;14.80;9.00;;;4.10;99.90;;;;;;4941316;29;20432;-59
2021/11/11 05:01:42;;;;;;;15.40;9.87;;;4.10;99.90;;;;;;4995602;28;20453;-54
2021/11/11 05:04:09;;;;;;;15.47;7.93;;;4.10;99.90;;;;;;4994917;28;20423;-55
2021/11/11 05:06:35;;;;;;;19.80;10.30;;;4.10;99.90;;;;;;5016003;23;20488;-52
2021/11/11 05:09:02;;;;;;;15.57;9.20;;;4.10;99.90;;;;;;5034925;28;20510;-57
2021/11/11 05:11:30;;;;;;;15.63;7.40;;;4.10;99.90;;;;;;5021952;23;20484;-58
2021/11/11 05:13:57;;;;;;;14.03;8.80;;;4.10;99.90;;;;;;4957285;29;20500;-55
2021/11/11 05:16:25;;;;;;;14.40;7.83;;;4.10;99.90;;;;;;4964324;23;20527;-51
2021/11/11 05:18:52;;;;;;;12.47;8.27;;;4.10;99.90;;;;;;4956845;29;20429;-54
2021/11/11 05:21:19;;;;;;;16.30;8.15;;;4.20;99.90;;;;;;4995776;23;20459;-39
2021/11/11 05:23:49;;;;;;;22.60;10.93;;;4.10;99.90;;;;;;4955776;29;20486;-57
2021/11/11 05:28:55;;;;;;;12.23;6.90;;;4.10;99.90;;;;;;5000161;23;20490;-59
2021/11/11 05:31:22;;;;;;;16.30;7.83;;;4.10;99.90;;;;;;4996839;28;20470;-53
2021/11/11 05:33:54;;;;;;;16.57;8.50;;;4.10;99.90;;;;;;5035457;23;20485;-54
2021/11/11 05:36:21;;;;;;;15.40;7.17;;;4.00;99.90;;;;;;5034959;28;20429;-59
2021/11/11 05:38:47;;;;;;;23.50;8.60;;;4.10;99.90;;;;;;4994791;23;20499;-56
2021/11/11 05:41:14;;;;;;;18.87;8.63;;;4.00;99.90;;;;;;4976105;29;20452;-57
2021/11/11 05:43:41;;;;;;;11.20;7.30;;;4.00;99.90;;;;;;5011380;23;20545;-58
2021/11/11 05:46:15;;;;;;;12.33;8.33;;;4.00;99.90;;;;;;4995904;28;20466;-55
2021/11/11 05:48:42;;;;;;;17.60;9.07;;;4.00;99.90;;;;;;5002291;23;20486;-53
2021/11/11 05:51:12;;;;;;;11.20;7.67;;;4.00;99.90;;;;;;4994929;28;20908;-56
2021/11/11 05:53:38;;;;;;;15.10;7.33;;;3.90;99.90;;;;;;5023858;23;20998;-56
2021/11/11 05:56:05;;;;;;;12.47;7.90;;;4.00;99.90;;;;;;5034870;28;20500;-57
2021/11/11 05:58:32;;;;;;;14.90;7.27;;;3.90;99.90;;;;;;5053195;23;20976;-52
2021/11/11 06:00:59;;;;;;;12.40;6.50;;;4.00;99.90;;;;;;4956279;29;20433;-58
2021/11/11 06:05:55;;;;;;;12.00;7.33;;;4.00;99.90;;;;;;4977226;29;20452;-45
2021/11/11 06:08:21;;;;;;;9.30;7.27;;;3.90;99.90;;;;;;4979680;28;20471;-46
2021/11/11 06:10:49;;;;;;;15.33;10.40;;;3.90;99.90;;;;;;5020302;23;20477;-53
2021/11/11 06:13:15;;;;;;;24.70;8.73;;;3.90;99.90;;;;;;5014913;23;20514;-51
2021/11/11 06:15:42;;;;;;;10.00;6.00;;;3.90;99.90;;;;;;5020630;23;20478;-49
2021/11/11 06:18:11;;;;;;;25.50;8.30;;;3.80;99.90;;;;;;4998042;28;20475;-46
2021/11/11 06:20:44;;;;;;;17.37;7.63;;;3.80;99.90;;;;;;4993014;23;20483;-51
2021/11/11 06:23:13;;;;;;;12.13;8.07;;;3.80;99.90;;;;;;4979497;29;20456;-54
2021/11/11 06:25:40;;;;;;;12.20;8.20;;;3.80;99.90;;;;;;5030611;23;20499;-54
2021/11/11 06:28:08;;;;;;;13.97;8.77;;;3.80;99.90;;;;;;4979694;29;20483;-59
2021/11/11 06:30:35;;;;;;;14.33;8.50;;;3.80;99.90;;;;;;4986358;23;20542;-54
2021/11/11 06:33:02;;;;;;;21.53;10.30;;;3.90;99.90;;;;;;4978776;28;20937;-50
2021/11/11 06:35:30;;;;;;;16.67;6.20;;;3.90;99.90;;;;;;4986167;23;20488;-50
2021/11/11 06:38:00;;;;;;;17.30;10.13;;;3.90;99.90;;;;;;4979329;28;20515;-48
2021/11/11 06:40:31;;;;;;;13.90;6.63;;;3.90;99.90;;;;;;5000822;23;20483;-49
2021/11/11 06:42:59;;;;;;;11.10;7.80;;;3.90;99.90;;;;;;4979115;29;20428;-56
2021/11/11 06:45:34;;;;;;;18.47;7.27;;;4.00;99.90;;;;;;4994644;23;20436;-45
2021/11/11 06:48:01;;;;;;;15.53;8.30;;;4.00;99.90;;;;;;4958149;29;20455;-54
2021/11/11 06:53:10;;;;;;;13.13;7.73;;;4.00;99.90;;;;;;4985540;23;20494;-54
2021/11/11 06:55:40;;;;;;;22.77;8.77;;;4.00;99.90;;;;;;4978621;29;20609;-51
2021/11/11 06:58:08;;;;;;;12.47;7.80;;;4.00;99.90;;;;;;4977941;29;20456;-54
2021/11/11 07:00:35;;;;;;;16.97;8.97;;;4.00;99.90;;;;;;4976809;29;20451;-53
2021/11/11 07:03:02;;;;;;;14.53;6.70;;;4.00;99.90;;;;;;4975407;29;20479;-53
2021/11/11 07:05:31;;;;;;;12.93;7.80;;;4.00;99.90;;;;;;4977386;29;20448;-49
2021/11/11 07:07:59;;;;;;;13.77;6.60;;;4.10;99.90;;;;;;4997629;23;20479;-52
2021/11/11 07:10:25;;;;;;;15.07;8.00;;;4.10;99.90;;;;;;4997012;28;20443;-51
2021/11/11 07:12:54;;;;;;;15.40;8.40;;;4.10;99.90;;;;;;5019336;23;20558;-53
2021/11/11 07:15:23;;;;;;;14.10;8.10;;;4.10;99.90;;;;;;4997388;28;20538;-57
2021/11/11 07:17:52;;;;;;;12.40;8.07;;;4.10;99.90;;;;;;4994401;23;20488;-54
2021/11/11 07:20:18;;;;;;;11.60;7.90;;;4.20;99.90;;;;;;4976794;29;20487;-57
2021/11/11 07:22:46;;;;;;;14.97;8.60;;;4.20;99.90;;;;;;4985380;23;20487;-53
2021/11/11 07:25:15;;;;;;;15.77;8.70;;;4.20;99.90;;;;;;4976991;28;20486;-47
2021/11/11 07:27:42;;;;;;;15.20;9.33;;;4.20;99.90;;;;;;4984679;23;20487;-53
2021/11/11 07:30:13;;;;;;;16.70;7.53;;;4.20;99.90;;;;;;4977821;29;20491;-52
2021/11/11 07:32:40;;;;;;;22.70;10.83;;;4.30;99.90;;;;;;4999194;23;20591;-54
2021/11/11 07:35:09;;;;;;;14.37;8.50;;;4.40;99.90;;;;;;4977787;29;20459;-55
2021/11/11 07:37:36;;;;;;;16.47;8.07;;;4.40;99.90;;;;;;4985946;23;20459;-49
2021/11/11 07:40:04;;;;;;;16.00;8.30;;;4.40;99.90;;;;;;4997348;28;20458;-51
2021/11/11 07:45:00;;;;;;;18.00;9.03;;;4.60;99.90;;;;;;4997500;23;20484;-51
2021/11/11 07:47:39;;;;;;;15.70;9.53;;;4.60;99.90;;;;;;4976367;29;20491;-53
2021/11/11 07:50:10;;;;;;;13.87;8.90;;;4.60;99.90;;;;;;4936810;23;1166577;-49
2021/11/11 07:52:37;;;;;;;14.30;9.00;;;4.60;99.90;;;;;;4947231;29;20203;-57
2021/11/11 07:55:05;;;;;;;14.20;9.83;;;4.70;99.90;;;;;;4953353;23;20563;-54
2021/11/11 07:57:33;;;;;;;16.07;9.20;;;4.70;99.90;;;;;;4948327;29;20429;-51
2021/11/11 08:00:01;;;;;;;15.70;7.40;;;4.70;99.90;;;;;;4972273;23;20498;-41
2021/11/11 08:02:29;;;;;;;15.90;8.57;;;4.70;99.90;;;;;;4981494;28;20465;-57
2021/11/11 08:04:55;;;;;;;19.93;8.40;;;4.70;99.90;;;;;;4977780;28;20458;-54
2021/11/11 08:07:23;;;;;;;17.67;8.90;;;4.60;99.90;;;;;;4976727;28;20443;-60
2021/11/11 08:12:20;;;;;;;15.00;8.63;;;4.70;99.90;;;;;;4976926;23;20510;-54
2021/11/11 08:14:49;;;;;;;16.93;9.00;;;4.80;99.90;;;;;;4972058;29;20492;-52
2021/11/11 08:17:18;;;;;;;16.67;8.97;;;4.80;99.90;;;;;;4978071;23;20865;-56
2021/11/11 08:19:47;;;;;;;18.77;9.33;;;4.90;99.90;;;;;;4965790;29;20484;-60
2021/11/11 08:22:14;;;;;;;14.43;8.60;;;4.90;99.90;;;;;;5004348;23;20497;-54
2021/11/11 08:24:46;;;;;;;17.30;9.87;;;5.00;99.90;;;;;;4984987;28;20518;-55
2021/11/11 08:27:14;;;;;;;14.97;10.77;;;5.10;99.90;;;;;;4983454;23;20498;-56
2021/11/11 08:29:42;;;;;;;17.27;8.40;;;5.10;99.90;;;;;;4982500;28;20478;-55
2021/11/11 08:32:10;;;;;;;18.00;10.37;;;5.20;99.90;;;;;;4990264;23;20482;-49
2021/11/11 08:34:37;;;;;;;18.67;9.80;;;5.30;99.90;;;;;;4993065;28;20511;-54
2021/11/11 08:37:07;;;;;;;17.93;7.70;;;5.40;99.90;;;;;;4987557;23;20819;-57
2021/11/11 08:39:34;;;;;;;15.73;9.20;;;5.50;99.90;;;;;;4973102;29;20455;-57
2021/11/11 08:42:01;;;;;;;22.23;10.07;;;5.50;99.90;;;;;;4970920;29;20467;-54
2021/11/11 08:44:28;;;;;;;16.60;7.43;;;5.60;99.90;;;;;;4972446;29;20471;-57
2021/11/11 08:46:55;;;;;;;15.93;9.60;;;5.70;99.90;;;;;;4972378;29;20451;-56
2021/11/11 08:49:22;;;;;;;18.90;8.87;;;5.80;99.90;;;;;;4972456;29;20447;-55
2021/11/11 08:51:52;;;;;;;14.40;8.07;;;5.90;99.90;;;;;;4971916;29;20479;-57
2021/11/11 08:54:22;;;;;;;21.40;9.53;;;6.00;99.90;;;;;;4970607;29;20546;-56
2021/11/11 08:56:50;;;;;;;15.07;9.07;;;6.20;99.90;;;;;;4971056;29;20436;-55
2021/11/11 08:59:18;;;;;;;12.70;7.43;;;6.20;99.90;;;;;;4970809;29;20472;-57
2021/11/11 09:01:45;;;;;;;19.23;10.83;;;6.40;99.90;;;;;;4969809;29;20472;-58
2021/11/11 09:04:13;;;;;;;18.43;11.77;;;6.60;99.90;;;;;;4972133;29;20475;-58
2021/11/11 09:06:40;;;;;;;21.10;10.40;;;6.70;99.90;;;;;;4970106;29;20448;-57
2021/11/11 09:09:07;;;;;;;17.17;10.20;;;6.80;99.90;;;;;;4969637;29;20470;-57
2021/11/11 09:11:36;;;;;;;12.37;8.40;;;7.00;99.90;;;;;;4968670;29;20448;-55
2021/11/11 09:14:03;;;;;;;20.33;10.70;;;7.10;99.90;;;;;;4966872;29;20626;-52
2021/11/11 09:16:31;;;;;;;20.40;10.10;;;7.30;99.90;;;;;;4968357;29;20443;-58
2021/11/11 09:18:57;;;;;;;17.80;10.40;;;7.40;99.90;;;;;;4967569;29;20480;-56
2021/11/11 09:21:24;;;;;;;21.23;11.50;;;7.70;99.90;;;;;;4965888;29;20471;-56
2021/11/11 09:23:51;;;;;;;12.03;9.60;;;8.50;99.90;;;;;;4965093;29;20495;-56
2021/11/11 09:26:18;;;;;;;16.30;8.60;;;9.70;99.90;;;;;;4963750;29;20482;-57
2021/11/11 09:28:47;;;;;;;16.40;8.77;;;10.90;99.90;;;;;;4962646;29;20446;-52
2021/11/11 09:31:23;;;;;;;14.97;9.50;;;12.30;99.90;;;;;;4962071;29;20463;-56
2021/11/11 09:33:50;;;;;;;15.30;8.07;;;13.30;99.90;;;;;;4961907;29;20444;-55
2021/11/11 10:04:46;;;;;;;13.50;9.13;;;17.70;95.50;;;;;;5654201;23;20499;-54
2021/11/11 10:07:13;;;;;;;13.17;8.10;;;17.90;95.00;;;;;;4963701;23;21075;-51
2021/11/11 10:09:41;;;;;;;15.20;8.60;;;18.00;95.00;;;;;;4959799;29;20539;-51
2021/11/11 10:12:17;;;;;;;13.40;8.43;;;17.70;95.40;;;;;;4960327;29;20459;-54
2021/11/11 10:14:46;;;;;;;15.30;8.40;;;17.10;96.00;;;;;;4959731;29;20550;-57
2021/11/11 10:17:14;;;;;;;11.67;7.17;;;16.80;97.70;;;;;;4955277;29;20448;-56
2021/11/11 10:19:44;;;;;;;15.07;8.40;;;16.80;97.80;;;;;;4959826;29;20598;-54
2021/11/11 10:22:16;;;;;;;14.10;7.47;;;16.70;98.30;;;;;;4956840;29;20478;-52
2021/11/11 10:24:45;;;;;;;12.20;7.80;;;16.50;98.90;;;;;;4952053;29;20479;-54
2021/11/11 10:27:27;;;;;;;14.30;8.47;;;16.60;99.80;;;;;;4948374;23;20999;-55
2021/11/11 10:30:01;;;;;;;14.60;8.23;;;16.60;99.50;;;;;;4939767;29;20484;-52
2021/11/11 10:32:31;;;;;;;16.30;8.27;;;16.50;99.50;;;;;;4955213;23;20495;-54
2021/11/11 10:34:59;;;;;;;15.40;9.20;;;16.20;99.90;;;;;;4962214;29;20574;-51
2021/11/11 10:37:29;;;;;;;17.37;8.67;;;15.70;99.90;;;;;;4966832;23;20479;-53
2021/11/11 10:40:01;;;;;;;13.97;9.13;;;15.00;99.90;;;;;;4959039;29;20480;-54
2021/11/11 10:42:31;;;;;;;19.03;9.53;;;14.70;99.90;;;;;;4966485;23;20475;-52
2021/11/11 10:44:59;;;;;;;14.90;9.07;;;14.60;99.90;;;;;;4959981;29;20476;-47
2021/11/11 10:47:29;;;;;;;17.50;10.40;;;14.50;99.90;;;;;;4967319;23;20754;-50
2021/11/11 10:49:56;;;;;;;17.43;11.23;;;13.70;99.90;;;;;;4959973;28;20878;-53
2021/11/11 10:55:08;;;;;;;20.60;9.67;;;12.40;99.90;;;;;;4965843;23;20491;-49
2021/11/11 11:00:08;;;;;;;21.03;9.33;;;11.80;99.90;;;;;;4965779;23;20546;-53
2021/11/11 11:05:24;;;;;;;17.00;9.57;;;11.50;99.90;;;;;;4984277;23;20498;-54
2021/11/11 11:10:38;;;;;;;14.60;8.17;;;11.20;99.90;;;;;;4967584;23;20864;-52
2021/11/11 11:15:49;;;;;;;12.63;8.83;;;11.30;99.90;;;;;;4964706;23;20508;-50
2021/11/11 11:21:00;;;;;;;20.90;10.97;;;11.30;99.90;;;;;;4966891;23;20483;-51
2021/11/11 11:23:29;;;;;;;22.60;10.83;;;11.30;99.90;;;;;;4958989;29;20460;-51
2021/11/11 11:26:01;;;;;;;18.53;10.70;;;11.30;99.90;;;;;;4966899;23;20492;-51
2021/11/11 11:28:31;;;;;;;20.13;9.40;;;11.30;99.90;;;;;;4960923;29;20467;-48
2021/11/11 11:31:00;;;;;;;21.83;9.83;;;11.30;99.90;;;;;;4976675;23;20511;-49
2021/11/11 11:33:33;;;;;;;17.03;9.43;;;11.40;99.90;;;;;;4960316;29;21179;-55
2021/11/11 11:36:01;;;;;;;15.90;10.17;;;11.80;99.90;;;;;;4966990;23;20500;-52
2021/11/11 11:38:30;;;;;;;15.33;9.20;;;11.80;99.90;;;;;;4958972;29;20483;-55
2021/11/11 11:40:58;;;;;;;20.60;10.77;;;11.70;99.90;;;;;;4966298;23;20488;-53
2021/11/11 11:43:29;;;;;;;20.40;9.70;;;11.70;99.90;;;;;;4958218;29;20460;-50
2021/11/11 11:46:11;;;;;;;19.63;9.83;;;11.50;99.90;;;;;;4961098;23;20499;-48
2021/11/11 11:48:38;;;;;;;19.40;10.53;;;11.40;99.90;;;;;;4939692;29;20847;-49
2021/11/11 11:51:07;;;;;;;14.83;8.87;;;11.40;99.90;;;;;;4939917;29;20480;-53
2021/11/11 11:53:39;;;;;;;18.80;9.83;;;11.30;99.90;;;;;;4948112;29;20460;-55
2021/11/11 11:56:13;;;;;;;25.53;10.30;;;11.20;99.90;;;;;;4950932;29;20871;-53
2021/11/11 11:58:44;;;;;;;18.53;10.23;;;11.20;99.90;;;;;;4957820;29;20440;-50
2021/11/11 12:01:31;;;;;;;17.20;9.60;;;11.30;99.90;;;;;;4955988;23;20491;-48
2021/11/11 12:04:06;;;;;;;18.80;8.87;;;11.20;99.90;;;;;;4964879;29;20443;-52
2021/11/11 12:07:01;;;;;;;14.80;8.70;;;11.10;99.90;;;;;;4966040;23;20644;-51
2021/11/11 12:09:34;;;;;;;17.30;8.63;;;11.10;99.90;;;;;;4942832;29;20452;-53
2021/11/11 12:12:43;;;;;;;15.03;9.37;;;11.10;99.90;;;;;;4956143;23;20511;-50
2021/11/11 12:15:26;;;;;;;18.57;9.53;;;11.10;99.90;;;;;;4962474;29;21110;-52
2021/11/11 12:18:28;;;;;;;22.80;10.80;;;11.10;99.90;;;;;;4985343;23;20531;-51
2021/11/11 12:29:54;;;;;;;18.80;8.33;;;11.30;99.90;;;;;;4940921;29;20477;-54
2021/11/11 12:38:38;;;;;;;16.97;9.30;;;11.20;99.90;;;;;;4958189;23;20506;-52
2021/11/11 12:41:09;;;;;;;14.93;7.60;;;11.30;99.90;;;;;;4961787;29;20440;-48
2021/11/11 12:43:47;;;;;;;16.33;8.27;;;11.40;99.90;;;;;;4969259;23;21011;-54
2021/11/11 12:46:42;;;;;;;22.63;8.60;;;11.40;99.90;;;;;;4962453;29;20496;-48
2021/11/11 12:49:33;;;;;;;11.77;6.90;;;11.50;99.90;;;;;;4972811;23;20495;-47
2021/11/11 12:52:20;;;;;;;20.53;9.23;;;11.50;99.90;;;;;;4963530;29;20467;-51
2021/11/11 12:54:50;;;;;;;17.40;8.37;;;11.30;99.90;;;;;;4969070;23;20507;-55
2021/11/11 12:57:18;;;;;;;17.60;9.47;;;11.30;99.90;;;;;;4961712;29;20459;-51
2021/11/11 12:59:45;;;;;;;11.73;7.90;;;11.30;99.90;;;;;;4969378;23;20550;-53
2021/11/11 13:02:13;;;;;;;16.80;9.43;;;11.30;99.90;;;;;;4961722;29;20472;-50
2021/11/11 13:04:49;;;;;;;14.50;7.67;;;11.20;99.90;;;;;;4968726;23;20994;-52
2021/11/11 13:07:28;;;;;;;14.13;7.47;;;11.20;99.90;;;;;;4961920;29;20475;-52
2021/11/11 13:10:08;;;;;;;15.50;7.80;;;11.20;99.90;;;;;;4968909;23;20540;-51
2021/11/11 13:12:41;;;;;;;14.80;8.20;;;11.10;99.90;;;;;;4961937;29;20527;-48
2021/11/11 13:15:13;;;;;;;15.93;7.37;;;11.00;99.90;;;;;;4970590;23;20566;-54
2021/11/11 13:17:48;;;;;;;12.50;6.40;;;11.00;99.90;;;;;;4964958;29;20479;-53
2021/11/11 13:20:43;;;;;;;14.00;7.47;;;11.00;99.90;;;;;;4972311;23;20590;-54
2021/11/11 13:23:20;;;;;;;14.43;6.93;;;11.00;99.90;;;;;;4964597;29;20520;-52
2021/11/11 13:26:18;;;;;;;10.40;6.47;;;11.10;99.90;;;;;;4971951;23;21078;-52
2021/11/11 15:17:11;;;;;;;6.33;4.00;;;10.90;99.90;;;;;;4978624;23;20498;-50
2021/11/11 16:02:17;;;;;;;9.50;5.67;;;10.60;99.90;;;;;;4943937;29;20413;-54
2021/11/11 16:21:27;;;;;;;13.47;6.70;;;10.30;99.90;;;;;;4927489;29;20443;-46
2021/11/11 16:24:07;;;;;;;10.10;6.17;;;10.20;99.90;;;;;;4967025;23;20492;-49
2021/11/11 16:26:36;;;;;;;12.43;5.93;;;10.30;99.90;;;;;;4962619;28;20432;-46
2021/11/11 16:29:04;;;;;;;10.77;6.60;;;10.30;99.90;;;;;;4962670;23;20488;-46
2021/11/11 16:31:35;;;;;;;9.90;6.03;;;10.30;99.90;;;;;;4943680;29;20862;-51
2021/11/11 16:34:02;;;;;;;15.47;7.47;;;10.20;99.90;;;;;;4967601;23;20491;-48
2021/11/11 16:36:32;;;;;;;14.03;6.00;;;10.20;99.90;;;;;;4962619;29;20551;-50
2021/11/11 16:38:59;;;;;;;10.90;5.40;;;10.20;99.90;;;;;;4969616;23;20496;-48
2021/11/11 16:41:26;;;;;;;10.90;6.93;;;10.10;99.90;;;;;;4963675;29;20877;-54
2021/11/11 16:43:54;;;;;;;8.80;6.50;;;10.10;99.90;;;;;;4970230;23;20463;-46
2021/11/11 16:46:21;;;;;;;12.20;6.27;;;10.10;99.90;;;;;;4965005;29;20932;-52
2021/11/11 16:51:29;;;;;;;15.70;7.23;;;10.10;99.90;;;;;;4972154;23;20495;-48
2021/11/11 16:53:56;;;;;;;11.70;5.40;;;10.10;99.90;;;;;;4967825;29;20447;-52
2021/11/11 16:56:25;;;;;;;12.30;5.63;;;10.10;99.90;;;;;;4974103;23;20960;-53
2021/11/11 16:58:52;;;;;;;11.53;6.80;;;10.10;99.90;;;;;;4967251;29;20471;-49
2021/11/11 17:01:20;;;;;;;10.60;5.73;;;10.10;99.90;;;;;;4973916;23;20522;-51
2021/11/11 17:03:47;;;;;;;17.23;6.90;;;10.00;99.90;;;;;;4967200;29;20480;-50
2021/11/11 17:06:15;;;;;;;13.70;8.43;;;9.90;99.90;;;;;;4974005;23;20577;-51
2021/11/11 17:08:42;;;;;;;11.77;6.60;;;9.90;99.90;;;;;;4967505;29;20514;-53
2021/11/11 17:11:11;;;;;;;14.20;7.40;;;9.90;99.90;;;;;;4963220;23;20539;-49
2021/11/11 17:13:42;;;;;;;12.20;7.00;;;9.90;99.90;;;;;;4948848;29;20469;-51
2021/11/11 17:16:12;;;;;;;32.93;6.63;;;10.00;99.90;;;;;;4967405;23;20840;-46
2021/11/11 17:18:40;;;;;;;10.40;6.27;;;10.00;99.90;;;;;;4970733;29;20742;-52
2021/11/11 17:21:12;;;;;;;13.77;7.43;;;10.00;99.90;;;;;;4976931;23;20494;-51
2021/11/11 17:23:45;;;;;;;14.17;6.80;;;9.90;99.90;;;;;;4967775;29;20440;-52
2021/11/11 17:26:21;;;;;;;11.40;7.17;;;10.00;99.90;;;;;;4988687;23;20506;-51
2021/11/11 17:28:49;;;;;;;15.00;6.80;;;9.90;99.90;;;;;;4967328;29;20427;-53